createdAt,value
2018-08-20T00:02:00.679Z,76.15
2018-08-20T00:04:35.097Z,76.81
2018-08-20T00:07:04.100Z,76.53
2018-08-20T00:09:38.596Z,76.03
2018-08-20T00:12:08.679Z,76.61
2018-08-20T00:14:37.738Z,76.16
2018-08-20T00:17:06.681Z,76.27
2018-08-20T00:19:35.571Z,76.75
2018-08-20T00:22:04.507Z,76.99
2018-08-20T00:24:33.341Z,77.00
2018-08-20T00:27:03.331Z,77.63
2018-08-20T00:29:32.817Z,75.98
2018-08-20T00:32:01.600Z,77.40
2018-08-20T00:34:30.433Z,75.81
2018-08-20T00:36:59.332Z,77.38
2018-08-20T00:39:28.104Z,77.17
2018-08-20T00:41:57.009Z,77.99
2018-08-20T00:44:25.937Z,78.18
2018-08-20T00:46:56.028Z,78.30
2018-08-20T00:49:24.881Z,78.89
2018-08-20T00:51:54.789Z,78.50
2018-08-20T00:54:23.661Z,78.58
2018-08-20T00:56:52.504Z,77.54
2018-08-20T00:59:21.343Z,78.49
2018-08-20T01:01:50.279Z,78.53
2018-08-20T01:04:19.140Z,77.73
2018-08-20T01:06:47.989Z,77.63
2018-08-20T01:09:16.912Z,78.31
2018-08-20T01:11:45.722Z,78.19
2018-08-20T01:14:14.721Z,77.58
2018-08-20T01:16:43.610Z,76.28
2018-08-20T01:19:12.402Z,78.05
2018-08-20T01:21:41.349Z,78.04
2018-08-20T01:24:10.153Z,78.19
2018-08-20T01:26:38.948Z,78.04
2018-08-20T01:29:08.031Z,77.97
2018-08-20T01:31:36.852Z,78.83
2018-08-20T01:34:12.025Z,78.38
2018-08-20T01:36:41.067Z,78.41
2018-08-20T01:39:09.956Z,78.56
2018-08-20T01:41:38.826Z,78.46
2018-08-20T01:44:07.876Z,77.93
2018-08-20T01:46:36.787Z,78.34
2018-08-20T01:49:05.693Z,78.32
2018-08-20T01:51:34.557Z,78.27
2018-08-20T01:54:03.414Z,78.65
2018-08-20T01:56:32.305Z,78.29
2018-08-20T01:59:01.129Z,78.24
2018-08-20T02:01:29.940Z,78.80
2018-08-20T02:03:58.896Z,78.05
2018-08-20T02:06:27.699Z,78.58
2018-08-20T02:08:56.505Z,78.62
2018-08-20T02:11:25.381Z,78.32
2018-08-20T02:13:54.376Z,78.74
2018-08-20T02:16:23.177Z,78.97
2018-08-20T02:18:52.066Z,78.79
2018-08-20T02:21:20.969Z,79.47
2018-08-20T02:23:49.806Z,78.71
2018-08-20T02:26:18.607Z,78.86
2018-08-20T02:28:47.456Z,79.12
2018-08-20T02:31:16.285Z,78.87
2018-08-20T02:33:46.102Z,79.39
2018-08-20T02:36:14.993Z,79.13
2018-08-20T02:38:43.859Z,79.41
2018-08-20T02:41:12.718Z,79.18
2018-08-20T02:43:41.626Z,79.70
2018-08-20T02:46:10.638Z,79.51
2018-08-20T02:48:39.560Z,79.59
2018-08-20T02:51:08.491Z,79.43
2018-08-20T02:53:37.338Z,79.48
2018-08-20T02:56:06.234Z,79.51
2018-08-20T02:58:35.151Z,79.79
2018-08-20T03:01:03.965Z,79.98
2018-08-20T03:03:32.952Z,79.71
2018-08-20T03:06:01.869Z,79.29
2018-08-20T03:08:30.710Z,79.78
2018-08-20T03:10:59.535Z,79.49
2018-08-20T03:13:28.436Z,79.68
2018-08-20T03:15:57.308Z,79.60
2018-08-20T03:18:26.192Z,79.47
2018-08-20T03:20:55.133Z,79.85
2018-08-20T03:23:24.005Z,79.93
2018-08-20T03:25:52.801Z,80.00
2018-08-20T03:28:22.060Z,79.23
2018-08-20T03:30:50.955Z,79.86
2018-08-20T03:33:19.861Z,79.87
2018-08-20T03:35:50.030Z,80.14
2018-08-20T03:38:18.899Z,79.63
2018-08-20T03:40:48.697Z,79.91
2018-08-20T03:43:17.620Z,79.27
2018-08-20T03:45:46.440Z,79.77
2018-08-20T03:48:15.274Z,79.22
2018-08-20T03:50:44.148Z,79.49
2018-08-20T03:53:13.174Z,79.62
2018-08-20T03:55:41.993Z,78.87
2018-08-20T03:58:10.828Z,78.51
2018-08-20T04:00:39.845Z,79.18
2018-08-20T04:03:08.864Z,78.72
2018-08-20T04:05:37.709Z,78.10
2018-08-20T04:08:08.005Z,78.52
2018-08-20T04:10:36.828Z,78.20
2018-08-20T04:13:05.697Z,78.44
2018-08-20T04:15:34.567Z,78.13
2018-08-20T04:18:03.481Z,77.63
2018-08-20T04:20:32.294Z,77.96
2018-08-20T04:23:01.189Z,77.21
2018-08-20T04:25:30.386Z,76.99
2018-08-20T04:27:59.277Z,77.00
2018-08-20T04:30:28.121Z,77.13
2018-08-20T04:32:56.980Z,75.86
2018-08-20T04:35:25.972Z,76.13
2018-08-20T04:37:55.418Z,75.70
2018-08-20T04:40:24.329Z,75.77
2018-08-20T04:42:53.209Z,74.96
2018-08-20T04:45:22.084Z,74.66
2018-08-20T04:47:50.860Z,74.41
2018-08-20T04:50:19.873Z,74.60
2018-08-20T04:52:48.570Z,72.80
2018-08-20T04:55:17.422Z,72.30
2018-08-20T04:57:46.275Z,72.89
2018-08-20T05:00:15.139Z,71.97
2018-08-20T05:02:44.012Z,71.65
2018-08-20T05:05:12.829Z,70.62
2018-08-20T05:07:41.642Z,70.08
2018-08-20T05:10:10.667Z,69.50
2018-08-20T05:12:39.407Z,68.46
2018-08-20T05:15:08.729Z,68.47
2018-08-20T05:17:38.841Z,68.59
2018-08-20T05:20:08.526Z,67.89
2018-08-20T05:22:37.317Z,67.12
2018-08-20T05:25:06.365Z,67.15
2018-08-20T05:27:35.278Z,66.72
2018-08-20T05:30:04.220Z,66.67
2018-08-20T05:32:33.016Z,66.10
2018-08-20T05:35:01.844Z,66.04
2018-08-20T05:37:30.696Z,65.60
2018-08-20T05:39:59.542Z,65.23
2018-08-20T05:42:29.487Z,65.41
2018-08-20T05:44:58.329Z,63.88
2018-08-20T05:47:28.134Z,64.19
2018-08-20T05:49:58.731Z,63.99
2018-08-20T05:52:28.496Z,63.54
2018-08-20T05:54:59.655Z,63.96
2018-08-20T05:57:30.319Z,63.85
2018-08-20T06:00:01.467Z,62.68
2018-08-20T06:02:37.420Z,63.24
2018-08-20T06:05:09.088Z,62.36
2018-08-20T06:07:41.692Z,61.71
2018-08-20T06:10:11.571Z,61.24
2018-08-20T06:12:43.874Z,61.71
2018-08-20T06:15:15.831Z,60.59
2018-08-20T06:17:48.835Z,60.65
2018-08-20T06:20:20.163Z,60.22
2018-08-20T06:22:53.073Z,60.52
2018-08-20T06:25:22.413Z,59.71
2018-08-20T06:27:53.570Z,58.13
2018-08-20T06:30:26.402Z,56.63
2018-08-20T06:32:57.273Z,57.47
2018-08-20T06:35:30.324Z,57.40
2018-08-20T06:38:01.925Z,57.17
2018-08-20T06:40:35.855Z,56.37
2018-08-20T06:43:08.935Z,57.18
2018-08-20T06:45:40.197Z,57.53
2018-08-20T06:48:11.835Z,57.53
2018-08-20T06:50:41.930Z,57.44
2018-08-20T06:53:12.443Z,55.13
2018-08-20T06:55:43.804Z,56.44
2018-08-20T06:58:13.050Z,56.86
2018-08-20T07:00:42.321Z,56.37
2018-08-20T07:03:14.503Z,55.48
2018-08-20T07:05:47.556Z,53.06
2018-08-20T07:08:17.593Z,53.06
2018-08-20T07:10:50.864Z,53.98
2018-08-20T07:13:36.379Z,52.26
2018-08-20T07:16:13.397Z,51.15
2018-08-20T07:18:43.247Z,49.98
2018-08-20T07:21:13.831Z,50.17
2018-08-20T07:23:46.360Z,51.38
2018-08-20T07:26:16.936Z,48.28
2018-08-20T07:28:49.960Z,46.84
2018-08-20T07:31:20.795Z,47.92
2018-08-20T07:33:54.838Z,45.17
2018-08-20T07:36:26.713Z,45.73
2018-08-20T07:38:58.220Z,44.65
2018-08-20T07:41:28.553Z,45.97
2018-08-20T07:44:00.724Z,44.04
2018-08-20T07:46:31.042Z,44.46
2018-08-20T07:49:07.334Z,45.56
2018-08-20T07:51:38.609Z,44.50
2018-08-20T07:54:08.063Z,44.60
2018-08-20T07:56:38.953Z,46.96
2018-08-20T07:59:10.417Z,45.83
2018-08-20T08:01:43.086Z,45.53
2018-08-20T08:04:14.740Z,46.03
2018-08-20T08:06:48.300Z,47.04
2018-08-20T08:09:18.652Z,46.03
2018-08-20T08:11:54.843Z,44.58
2018-08-20T08:14:24.153Z,45.24
2018-08-20T08:16:57.200Z,43.72
2018-08-20T08:19:32.873Z,43.44
2018-08-20T08:22:02.344Z,42.14
2018-08-20T08:24:33.078Z,40.38
2018-08-20T08:27:03.656Z,40.81
2018-08-20T08:29:34.694Z,42.12
2018-08-20T08:32:05.710Z,42.05
2018-08-20T08:34:35.771Z,38.81
2018-08-20T08:37:06.667Z,38.96
2018-08-20T08:39:39.730Z,40.03
2018-08-20T08:42:16.141Z,39.97
2018-08-20T08:44:47.490Z,40.11
2018-08-20T08:47:24.301Z,40.63
2018-08-20T08:50:03.161Z,40.72
2018-08-20T08:52:38.579Z,41.18
2018-08-20T08:55:09.840Z,41.94
2018-08-20T08:57:41.729Z,42.56
2018-08-20T09:00:20.026Z,43.25
2018-08-20T09:02:51.414Z,44.08
2018-08-20T09:05:25.351Z,44.49
2018-08-20T09:07:55.356Z,44.58
2018-08-20T09:10:29.766Z,43.79
2018-08-20T09:12:59.617Z,44.84
2018-08-20T09:15:31.464Z,44.63
2018-08-20T09:18:02.570Z,46.48
2018-08-20T09:20:33.417Z,46.70
2018-08-20T09:23:05.596Z,47.41
2018-08-20T09:25:37.006Z,47.80
2018-08-20T09:28:08.373Z,48.44
2018-08-20T09:30:42.030Z,47.54
2018-08-20T09:33:13.193Z,49.12
2018-08-20T09:35:43.576Z,47.65
2018-08-20T09:38:16.107Z,46.99
2018-08-20T09:40:48.475Z,47.59
2018-08-20T09:43:20.627Z,48.59
2018-08-20T09:45:52.565Z,48.32
2018-08-20T09:48:24.808Z,48.14
2018-08-20T09:50:55.917Z,49.64
2018-08-20T09:53:29.140Z,50.68
2018-08-20T09:55:58.581Z,50.50
2018-08-20T09:58:31.485Z,51.01
2018-08-20T10:01:04.780Z,49.83
2018-08-20T10:03:34.819Z,50.45
2018-08-20T10:08:45.161Z,51.96
2018-08-20T10:11:18.157Z,52.44
2018-08-20T10:13:50.304Z,51.49
2018-08-20T10:16:20.744Z,51.62
2018-08-20T10:18:54.992Z,50.82
2018-08-20T10:21:24.388Z,48.87
2018-08-20T10:23:54.839Z,47.92
2018-08-20T10:26:29.100Z,47.00
2018-08-20T10:28:59.974Z,45.60
2018-08-20T10:31:32.118Z,45.69
2018-08-20T10:34:02.549Z,45.54
2018-08-20T10:36:32.698Z,44.84
2018-08-20T10:39:07.234Z,46.32
2018-08-20T10:41:40.843Z,43.95
2018-08-20T10:44:13.372Z,44.19
2018-08-20T10:46:44.124Z,45.09
2018-08-20T10:49:17.301Z,43.87
2018-08-20T10:51:46.733Z,44.49
2018-08-20T10:54:20.788Z,44.14
2018-08-20T10:56:51.840Z,44.31
2018-08-20T10:59:26.392Z,44.36
2018-08-20T11:01:56.750Z,45.13
2018-08-20T11:04:28.289Z,43.12
2018-08-20T11:06:58.796Z,42.98
2018-08-20T11:09:31.302Z,42.54
2018-08-20T11:12:01.687Z,44.11
2018-08-20T11:14:33.185Z,44.93
2018-08-20T11:17:03.961Z,46.28
2018-08-20T11:19:33.766Z,45.99
2018-08-20T11:22:06.315Z,45.35
2018-08-20T11:24:38.107Z,46.11
2018-08-20T11:27:11.063Z,45.81
2018-08-20T11:29:46.424Z,45.75
2018-08-20T11:32:19.579Z,45.92
2018-08-20T11:34:52.243Z,45.02
2018-08-20T11:37:23.245Z,44.80
2018-08-20T11:39:54.195Z,45.53
2018-08-20T11:42:25.622Z,43.96
2018-08-20T11:44:59.112Z,45.04
2018-08-20T11:47:31.145Z,45.57
2018-08-20T11:50:02.715Z,45.00
2018-08-20T11:52:37.367Z,44.42
2018-08-20T11:55:08.937Z,45.23
2018-08-20T11:57:40.383Z,43.95
2018-08-20T12:00:12.855Z,43.46
2018-08-20T12:02:42.803Z,43.33
2018-08-20T12:05:19.192Z,44.13
2018-08-20T12:07:50.810Z,45.46
2018-08-20T12:10:28.134Z,45.35
2018-08-20T12:12:58.944Z,45.24
2018-08-20T12:15:34.674Z,43.85
2018-08-20T12:18:07.588Z,44.32
2018-08-20T12:20:37.411Z,43.54
2018-08-20T12:23:08.328Z,43.01
2018-08-20T12:25:41.716Z,43.70
2018-08-20T12:28:12.959Z,43.90
2018-08-20T12:30:44.963Z,44.63
2018-08-20T12:33:14.658Z,44.01
2018-08-20T12:35:50.040Z,43.34
2018-08-20T12:38:24.018Z,42.78
2018-08-20T12:40:55.842Z,42.21
2018-08-20T12:43:27.709Z,39.74
2018-08-20T12:45:59.856Z,38.38
2018-08-20T12:48:29.871Z,36.96
2018-08-20T12:51:04.439Z,37.74
2018-08-20T12:53:34.978Z,37.12
2018-08-20T12:56:07.786Z,36.17
2018-08-20T12:58:48.656Z,35.27
2018-08-20T13:01:20.462Z,35.77
2018-08-20T13:03:51.005Z,34.84
2018-08-20T13:06:21.013Z,34.46
2018-08-20T13:08:57.246Z,33.90
2018-08-20T13:11:28.189Z,34.04
2018-08-20T13:14:00.801Z,33.16
2018-08-20T13:16:31.271Z,32.52
2018-08-20T13:19:04.779Z,33.32
2018-08-20T13:21:35.555Z,34.27
2018-08-20T13:24:06.335Z,34.43
2018-08-20T13:26:35.907Z,35.89
2018-08-20T13:29:07.863Z,34.22
2018-08-20T13:31:40.656Z,33.65
2018-08-20T13:34:17.039Z,35.20
2018-08-20T13:36:49.099Z,34.27
2018-08-20T13:39:20.527Z,35.67
2018-08-20T13:41:50.794Z,33.34
2018-08-20T13:44:21.301Z,34.19
2018-08-20T13:46:56.945Z,34.32
2018-08-20T13:49:29.531Z,32.75
2018-08-20T13:51:58.998Z,32.94
2018-08-20T13:54:29.825Z,33.00
2018-08-20T13:57:03.081Z,32.34
2018-08-20T13:59:35.048Z,33.11
2018-08-20T14:02:07.505Z,32.99
2018-08-20T14:04:37.925Z,33.36
2018-08-20T14:07:10.747Z,34.56
2018-08-20T14:09:39.793Z,32.55
2018-08-20T14:12:08.709Z,31.94
2018-08-20T14:14:38.598Z,32.17
2018-08-20T14:17:07.522Z,30.71
2018-08-20T14:19:38.734Z,30.38
2018-08-20T14:22:07.682Z,29.67
2018-08-20T14:24:36.561Z,31.73
2018-08-20T14:27:05.618Z,31.19
2018-08-20T14:29:36.511Z,32.26
2018-08-20T14:32:06.214Z,31.89
2018-08-20T14:34:35.141Z,31.42
2018-08-20T14:37:05.419Z,30.71
2018-08-20T14:39:35.898Z,31.65
2018-08-20T14:42:07.040Z,31.84
2018-08-20T14:44:37.618Z,30.35
2018-08-20T14:47:07.213Z,31.34
2018-08-20T14:49:39.607Z,30.92
2018-08-20T14:52:11.691Z,32.09
2018-08-20T14:54:45.884Z,31.57
2018-08-20T14:57:15.326Z,30.78
2018-08-20T14:59:46.655Z,31.56
2018-08-20T15:02:16.863Z,31.48
2018-08-20T15:04:48.213Z,30.21
2018-08-20T15:07:19.704Z,30.92
2018-08-20T15:09:50.188Z,29.69
2018-08-20T15:12:21.736Z,29.21
2018-08-20T15:14:53.903Z,28.79
2018-08-20T15:17:25.025Z,30.42
2018-08-20T15:19:55.151Z,31.65
2018-08-20T15:22:27.480Z,31.77
2018-08-20T15:24:56.850Z,31.65
2018-08-20T15:27:29.730Z,31.66
2018-08-20T15:30:02.716Z,31.13
2018-08-20T15:32:40.777Z,31.92
2018-08-20T15:35:12.391Z,33.55
2018-08-20T15:37:44.105Z,33.12
2018-08-20T15:40:14.561Z,33.36
2018-08-20T15:42:48.036Z,34.03
2018-08-20T15:45:18.311Z,33.11
2018-08-20T15:47:49.108Z,33.30
2018-08-20T15:50:24.739Z,33.35
2018-08-20T15:52:58.572Z,33.07
2018-08-20T15:55:27.867Z,33.80
2018-08-20T15:57:58.185Z,33.57
2018-08-20T16:00:35.962Z,34.21
2018-08-20T16:03:05.252Z,34.00
2018-08-20T16:05:37.338Z,33.59
2018-08-20T16:08:11.570Z,33.82
2018-08-20T16:10:46.844Z,34.55
2018-08-20T16:13:16.163Z,34.64
2018-08-20T16:15:48.511Z,34.36
2018-08-20T16:18:21.362Z,35.08
2018-08-20T16:20:52.466Z,34.21
2018-08-20T16:23:25.281Z,33.66
2018-08-20T16:25:55.465Z,33.29
2018-08-20T16:28:24.924Z,33.98
2018-08-20T16:30:56.287Z,33.88
2018-08-20T16:33:27.121Z,35.72
2018-08-20T16:35:59.477Z,35.50
2018-08-20T16:38:29.348Z,37.36
2018-08-20T16:41:00.854Z,37.25
2018-08-20T16:43:35.498Z,37.65
2018-08-20T16:46:06.307Z,37.43
2018-08-20T16:48:38.111Z,40.72
2018-08-20T16:51:09.286Z,38.98
2018-08-20T16:53:38.605Z,40.68
2018-08-20T16:56:07.684Z,39.68
2018-08-20T16:58:39.889Z,41.36
2018-08-20T17:01:19.280Z,44.04
2018-08-20T17:03:51.725Z,42.81
2018-08-20T17:06:21.255Z,44.55
2018-08-20T17:08:51.883Z,43.14
2018-08-20T17:11:21.486Z,44.78
2018-08-20T17:13:53.190Z,43.40
2018-08-20T17:16:24.466Z,46.10
2018-08-20T17:18:55.347Z,44.27
2018-08-20T17:21:26.234Z,47.90
2018-08-20T17:23:59.973Z,46.42
2018-08-20T17:26:30.993Z,45.44
2018-08-20T17:29:18.843Z,43.93
2018-08-20T17:31:49.693Z,48.27
2018-08-20T17:34:24.631Z,48.24
2018-08-20T17:36:55.109Z,50.90
2018-08-20T17:39:27.655Z,48.41
2018-08-20T17:41:59.408Z,50.83
2018-08-20T17:44:31.214Z,47.17
2018-08-20T17:47:01.909Z,46.79
2018-08-20T17:49:32.931Z,47.95
2018-08-20T17:52:05.132Z,48.07
2018-08-20T17:54:36.484Z,47.14
2018-08-20T17:57:07.010Z,48.00
2018-08-20T17:59:37.893Z,50.30
2018-08-20T18:02:14.436Z,47.59
2018-08-20T18:04:44.298Z,50.31
2018-08-20T18:07:31.986Z,49.80
2018-08-20T18:10:02.149Z,48.90
2018-08-20T18:12:32.971Z,52.18
2018-08-20T18:15:06.333Z,57.17
2018-08-20T18:17:36.146Z,50.98
2018-08-20T18:20:11.363Z,50.39
2018-08-20T18:22:42.734Z,51.17
2018-08-20T18:25:16.510Z,52.61
2018-08-20T18:27:46.492Z,50.07
2018-08-20T18:30:19.219Z,51.27
2018-08-20T18:32:49.529Z,51.13
2018-08-20T18:35:29.593Z,53.90
2018-08-20T18:37:59.048Z,50.86
2018-08-20T18:40:30.564Z,53.00
2018-08-20T18:43:05.614Z,53.07
2018-08-20T18:45:37.526Z,50.57
2018-08-20T18:48:08.121Z,51.44
2018-08-20T18:50:39.526Z,53.74
2018-08-20T18:53:10.753Z,51.90
2018-08-20T18:55:48.900Z,59.58
2018-08-20T18:58:20.283Z,55.06
2018-08-20T19:00:51.939Z,53.67
2018-08-20T19:03:25.385Z,52.80
2018-08-20T19:05:57.104Z,51.13
2018-08-20T19:08:32.818Z,56.05
2018-08-20T19:11:03.611Z,51.84
2018-08-20T19:13:35.451Z,58.24
2018-08-20T19:19:16.543Z,56.05
2018-08-20T19:21:45.987Z,55.23
2018-08-20T19:24:18.174Z,55.24
2018-08-20T19:26:49.895Z,56.90
2018-08-20T19:29:30.365Z,56.61
2018-08-20T19:32:02.953Z,57.10
2018-08-20T19:34:32.957Z,56.30
2018-08-20T19:37:04.336Z,56.90
2018-08-20T19:39:37.260Z,57.80
2018-08-20T19:42:08.325Z,57.73
2018-08-20T19:44:38.295Z,58.04
2018-08-20T19:47:08.718Z,59.71
2018-08-20T19:49:40.752Z,58.50
2018-08-20T19:52:11.147Z,61.81
2018-08-20T19:54:47.137Z,58.66
2018-08-20T19:57:19.479Z,58.47
2018-08-20T19:59:52.827Z,58.68
2018-08-20T20:02:27.761Z,59.42
2018-08-20T20:05:04.935Z,59.38
2018-08-20T20:07:39.051Z,60.21
2018-08-20T20:10:18.547Z,62.17
2018-08-20T20:12:56.144Z,60.71
2018-08-20T20:15:27.359Z,60.52
2018-08-20T20:17:59.828Z,60.40
2018-08-20T20:20:36.590Z,61.19
2018-08-20T20:23:12.309Z,63.10
2018-08-20T20:25:44.916Z,65.25
2018-08-20T20:28:17.387Z,60.55
2018-08-20T20:30:47.992Z,62.24
2018-08-20T20:33:25.659Z,61.55
2018-08-20T20:35:56.523Z,62.35
2018-08-20T20:38:27.344Z,61.36
2018-08-20T20:41:00.720Z,62.35
2018-08-20T20:43:42.184Z,62.07
2018-08-20T20:46:18.123Z,63.19
2018-08-20T20:48:49.127Z,62.38
2018-08-20T20:51:22.719Z,61.54
2018-08-20T20:53:54.306Z,61.84
2018-08-20T20:56:26.894Z,62.69
2018-08-20T20:58:58.565Z,62.96
2018-08-20T21:01:30.544Z,62.12
2018-08-20T21:04:08.580Z,64.13
2018-08-20T21:06:44.157Z,61.49
2018-08-20T21:09:17.671Z,61.97
2018-08-20T21:11:49.581Z,63.13
2018-08-20T21:14:21.492Z,64.33
2018-08-20T21:16:57.580Z,63.07
2018-08-20T21:19:29.632Z,61.39
2018-08-20T21:22:05.817Z,61.49
2018-08-20T21:24:36.321Z,61.39
2018-08-20T21:27:40.052Z,60.88
2018-08-20T21:30:12.448Z,60.41
2018-08-20T21:32:41.824Z,66.02
2018-08-20T21:35:19.543Z,64.84
2018-08-20T21:37:49.441Z,63.58
2018-08-20T21:40:23.570Z,61.41
2018-08-20T21:42:55.081Z,62.25
2018-08-20T21:45:25.550Z,61.17
2018-08-20T21:47:56.588Z,63.04
2018-08-20T21:50:28.316Z,61.45
2018-08-20T21:52:58.477Z,61.36
2018-08-20T21:55:29.590Z,62.82
2018-08-20T21:58:01.753Z,61.74
2018-08-20T22:00:33.770Z,62.34
2018-08-20T22:03:06.214Z,64.55
2018-08-20T22:05:37.469Z,61.96
2018-08-20T22:08:06.732Z,66.48
2018-08-20T22:10:38.485Z,64.00
2018-08-20T22:13:11.520Z,61.17
2018-08-20T22:15:46.779Z,63.74
2018-08-20T22:18:19.206Z,62.00
2018-08-20T22:20:48.905Z,61.68
2018-08-20T22:23:25.374Z,62.51
2018-08-20T22:25:55.546Z,63.38
2018-08-20T22:28:25.411Z,62.05
2018-08-20T22:30:57.744Z,62.48
2018-08-20T22:33:29.634Z,63.25
2018-08-20T22:36:01.817Z,63.46
2018-08-20T22:38:46.066Z,64.01
2018-08-20T22:41:16.918Z,65.14
2018-08-20T22:43:48.975Z,63.81
2018-08-20T22:46:18.883Z,62.75
2018-08-20T22:48:53.654Z,64.98
2018-08-20T22:51:23.986Z,62.62
2018-08-20T22:53:58.983Z,64.12
2018-08-20T22:56:31.212Z,62.45
2018-08-20T22:59:01.939Z,62.78
2018-08-20T23:01:32.720Z,62.57
2018-08-20T23:04:02.338Z,63.53
2018-08-20T23:06:32.074Z,63.47
2018-08-20T23:09:11.373Z,64.18
2018-08-20T23:11:42.572Z,63.05
2018-08-20T23:14:12.641Z,62.95
2018-08-20T23:16:41.854Z,65.73
2018-08-20T23:19:11.121Z,65.16
2018-08-20T23:21:44.108Z,61.48
2018-08-20T23:24:14.376Z,62.40
2018-08-20T23:26:45.217Z,62.84
2018-08-20T23:29:15.224Z,62.87
2018-08-20T23:31:45.016Z,63.53
2018-08-20T23:34:16.883Z,63.42
2018-08-20T23:36:46.132Z,64.15
2018-08-20T23:39:16.839Z,64.07
2018-08-20T23:41:45.859Z,64.62
2018-08-20T23:44:16.950Z,63.76
2018-08-20T23:46:50.582Z,63.08
2018-08-20T23:49:19.557Z,64.94
2018-08-20T23:51:49.322Z,64.09
2018-08-20T23:54:18.226Z,64.87
2018-08-20T23:56:47.183Z,63.61
2018-08-20T23:59:16.092Z,66.33
